sensor_id;sensor_type;location;lat;lon;timestamp;P1;durP1;ratioP1;P2;durP2;ratioP2
63193;SDS011;49289;51.670;5.624;2023-05-17T00:00:58;11.20;;;3.90;;
63193;SDS011;49289;51.670;5.624;2023-05-17T00:02:46;12.20;;;3.90;;
63193;SDS011;49289;51.670;5.624;2023-05-17T00:04:33;9.80;;;3.90;;
63193;SDS011;49289;51.670;5.624;2023-05-17T00:06:20;9.70;;;3.60;;
63193;SDS011;49289;51.670;5.624;2023-05-17T00:08:07;9.20;;;3.80;;
63193;SDS011;49289;51.670;5.624;2023-05-17T00:09:54;12.00;;;4.10;;
63193;SDS011;49289;51.670;5.624;2023-05-17T00:11:41;13.40;;;4.00;;
63193;SDS011;49289;51.670;5.624;2023-05-17T00:13:28;10.20;;;3.90;;
63193;SDS011;49289;51.670;5.624;2023-05-17T00:15:15;10.60;;;3.50;;
63193;SDS011;49289;51.670;5.624;2023-05-17T00:17:02;11.40;;;4.20;;
63193;SDS011;49289;51.670;5.624;2023-05-17T00:18:49;10.40;;;4.00;;
63193;SDS011;49289;51.670;5.624;2023-05-17T00:20:36;13.10;;;3.70;;
63193;SDS011;49289;51.670;5.624;2023-05-17T00:22:23;11.50;;;3.80;;
63193;SDS011;49289;51.670;5.624;2023-05-17T00:24:10;9.90;;;3.50;;
63193;SDS011;49289;51.670;5.624;2023-05-17T00:25:57;11.30;;;4.00;;
63193;SDS011;49289;51.670;5.624;2023-05-17T00:27:44;12.00;;;4.10;;
63193;SDS011;49289;51.670;5.624;2023-05-17T00:29:31;9.90;;;4.00;;
63193;SDS011;49289;51.670;5.624;2023-05-17T00:31:18;10.80;;;4.10;;
63193;SDS011;49289;51.670;5.624;2023-05-17T00:33:05;9.10;;;3.80;;
63193;SDS011;49289;51.670;5.624;2023-05-17T00:34:52;11.00;;;4.00;;
63193;SDS011;49289;51.670;5.624;2023-05-17T00:36:39;12.30;;;4.10;;
63193;SDS011;49289;51.670;5.624;2023-05-17T00:38:27;10.30;;;3.80;;
63193;SDS011;49289;51.670;5.624;2023-05-17T00:40:16;13.30;;;4.10;;
63193;SDS011;49289;51.670;5.624;2023-05-17T00:42:03;13.50;;;4.00;;
63193;SDS011;49289;51.670;5.624;2023-05-17T00:43:50;14.50;;;4.10;;
63193;SDS011;49289;51.670;5.624;2023-05-17T00:45:37;12.80;;;3.80;;
63193;SDS011;49289;51.670;5.624;2023-05-17T00:47:24;8.10;;;4.00;;
63193;SDS011;49289;51.670;5.624;2023-05-17T00:49:11;11.40;;;3.90;;
63193;SDS011;49289;51.670;5.624;2023-05-17T00:50:59;10.60;;;3.90;;
63193;SDS011;49289;51.670;5.624;2023-05-17T00:52:47;11.10;;;3.70;;
63193;SDS011;49289;51.670;5.624;2023-05-17T00:54:35;11.90;;;4.00;;
63193;SDS011;49289;51.670;5.624;2023-05-17T00:56:23;12.50;;;3.70;;
63193;SDS011;49289;51.670;5.624;2023-05-17T00:58:11;9.00;;;3.80;;
63193;SDS011;49289;51.670;5.624;2023-05-17T00:59:58;10.40;;;3.80;;
63193;SDS011;49289;51.670;5.624;2023-05-17T01:01:46;10.80;;;3.70;;
63193;SDS011;49289;51.670;5.624;2023-05-17T01:03:34;7.30;;;4.00;;
63193;SDS011;49289;51.670;5.624;2023-05-17T01:05:22;13.40;;;4.20;;
63193;SDS011;49289;51.670;5.624;2023-05-17T01:07:10;9.70;;;3.70;;
63193;SDS011;49289;51.670;5.624;2023-05-17T01:08:58;13.30;;;4.20;;
63193;SDS011;49289;51.670;5.624;2023-05-17T01:10:49;14.40;;;4.30;;
63193;SDS011;49289;51.670;5.624;2023-05-17T01:12:40;10.70;;;3.90;;
63193;SDS011;49289;51.670;5.624;2023-05-17T01:14:32;9.80;;;4.30;;
63193;SDS011;49289;51.670;5.624;2023-05-17T01:16:21;12.30;;;4.30;;
63193;SDS011;49289;51.670;5.624;2023-05-17T01:18:11;9.80;;;3.80;;
63193;SDS011;49289;51.670;5.624;2023-05-17T01:20:02;13.40;;;4.20;;
63193;SDS011;49289;51.670;5.624;2023-05-17T01:21:54;15.20;;;4.60;;
63193;SDS011;49289;51.670;5.624;2023-05-17T01:23:44;13.30;;;4.50;;
63193;SDS011;49289;51.670;5.624;2023-05-17T01:25:33;14.40;;;4.60;;
63193;SDS011;49289;51.670;5.624;2023-05-17T01:27:21;13.70;;;4.50;;
63193;SDS011;49289;51.670;5.624;2023-05-17T01:29:09;10.50;;;4.10;;
63193;SDS011;49289;51.670;5.624;2023-05-17T01:30:56;8.90;;;4.00;;
63193;SDS011;49289;51.670;5.624;2023-05-17T01:32:43;13.10;;;4.50;;
63193;SDS011;49289;51.670;5.624;2023-05-17T01:34:30;9.20;;;4.40;;
63193;SDS011;49289;51.670;5.624;2023-05-17T01:36:17;13.30;;;4.80;;
63193;SDS011;49289;51.670;5.624;2023-05-17T01:38:04;11.40;;;4.50;;
63193;SDS011;49289;51.670;5.624;2023-05-17T01:39:51;15.10;;;5.90;;
63193;SDS011;49289;51.670;5.624;2023-05-17T01:41:38;13.90;;;4.50;;
63193;SDS011;49289;51.670;5.624;2023-05-17T01:43:29;11.30;;;4.70;;
63193;SDS011;49289;51.670;5.624;2023-05-17T01:45:15;13.10;;;4.90;;
63193;SDS011;49289;51.670;5.624;2023-05-17T01:47:04;16.20;;;4.40;;
63193;SDS011;49289;51.670;5.624;2023-05-17T01:48:51;8.00;;;4.30;;
63193;SDS011;49289;51.670;5.624;2023-05-17T01:50:39;11.20;;;4.30;;
63193;SDS011;49289;51.670;5.624;2023-05-17T01:52:31;10.50;;;4.50;;
63193;SDS011;49289;51.670;5.624;2023-05-17T01:54:18;13.10;;;4.50;;
63193;SDS011;49289;51.670;5.624;2023-05-17T01:56:06;13.20;;;4.40;;
63193;SDS011;49289;51.670;5.624;2023-05-17T01:57:54;13.20;;;4.70;;
63193;SDS011;49289;51.670;5.624;2023-05-17T01:59:40;12.90;;;4.40;;
63193;SDS011;49289;51.670;5.624;2023-05-17T02:01:27;15.00;;;5.30;;
63193;SDS011;49289;51.670;5.624;2023-05-17T02:03:17;11.60;;;4.80;;
63193;SDS011;49289;51.670;5.624;2023-05-17T02:05:05;14.10;;;4.90;;
63193;SDS011;49289;51.670;5.624;2023-05-17T02:06:52;14.70;;;4.80;;
63193;SDS011;49289;51.670;5.624;2023-05-17T02:08:39;10.80;;;5.10;;
63193;SDS011;49289;51.670;5.624;2023-05-17T02:10:26;10.00;;;4.60;;
63193;SDS011;49289;51.670;5.624;2023-05-17T02:12:13;13.70;;;5.00;;
63193;SDS011;49289;51.670;5.624;2023-05-17T02:14:00;12.90;;;5.20;;
63193;SDS011;49289;51.670;5.624;2023-05-17T02:15:47;14.70;;;5.00;;
63193;SDS011;49289;51.670;5.624;2023-05-17T02:17:35;15.60;;;4.70;;
63193;SDS011;49289;51.670;5.624;2023-05-17T02:19:23;12.40;;;4.60;;
63193;SDS011;49289;51.670;5.624;2023-05-17T02:21:11;11.30;;;4.40;;
63193;SDS011;49289;51.670;5.624;2023-05-17T02:22:58;14.40;;;4.50;;
63193;SDS011;49289;51.670;5.624;2023-05-17T02:24:46;13.00;;;5.10;;
63193;SDS011;49289;51.670;5.624;2023-05-17T02:26:34;13.70;;;5.00;;
63193;SDS011;49289;51.670;5.624;2023-05-17T02:28:21;11.20;;;4.80;;
63193;SDS011;49289;51.670;5.624;2023-05-17T02:30:08;13.40;;;4.60;;
63193;SDS011;49289;51.670;5.624;2023-05-17T02:31:56;13.70;;;4.70;;
63193;SDS011;49289;51.670;5.624;2023-05-17T02:33:43;15.90;;;4.80;;
63193;SDS011;49289;51.670;5.624;2023-05-17T02:35:30;13.30;;;4.80;;
63193;SDS011;49289;51.670;5.624;2023-05-17T02:37:17;10.90;;;4.90;;
63193;SDS011;49289;51.670;5.624;2023-05-17T02:39:04;15.30;;;5.00;;
63193;SDS011;49289;51.670;5.624;2023-05-17T02:40:51;13.20;;;4.90;;
63193;SDS011;49289;51.670;5.624;2023-05-17T02:42:38;14.70;;;4.50;;
63193;SDS011;49289;51.670;5.624;2023-05-17T02:44:26;11.60;;;4.80;;
63193;SDS011;49289;51.670;5.624;2023-05-17T02:46:13;10.60;;;4.80;;
63193;SDS011;49289;51.670;5.624;2023-05-17T02:48:01;13.00;;;4.80;;
63193;SDS011;49289;51.670;5.624;2023-05-17T02:49:49;16.10;;;4.90;;
63193;SDS011;49289;51.670;5.624;2023-05-17T02:51:36;10.30;;;4.50;;
63193;SDS011;49289;51.670;5.624;2023-05-17T02:53:23;11.60;;;4.80;;
63193;SDS011;49289;51.670;5.624;2023-05-17T02:55:10;17.80;;;5.40;;
63193;SDS011;49289;51.670;5.624;2023-05-17T02:56:58;12.10;;;4.90;;
63193;SDS011;49289;51.670;5.624;2023-05-17T02:58:46;14.00;;;5.10;;
63193;SDS011;49289;51.670;5.624;2023-05-17T03:00:33;12.50;;;5.30;;
63193;SDS011;49289;51.670;5.624;2023-05-17T03:02:21;11.80;;;5.30;;
63193;SDS011;49289;51.670;5.624;2023-05-17T03:04:08;14.10;;;5.20;;
63193;SDS011;49289;51.670;5.624;2023-05-17T03:05:55;13.00;;;5.20;;
63193;SDS011;49289;51.670;5.624;2023-05-17T03:07:44;14.40;;;5.40;;
63193;SDS011;49289;51.670;5.624;2023-05-17T03:09:31;16.30;;;6.30;;
63193;SDS011;49289;51.670;5.624;2023-05-17T03:11:18;13.80;;;5.50;;
63193;SDS011;49289;51.670;5.624;2023-05-17T03:13:05;14.30;;;5.60;;
63193;SDS011;49289;51.670;5.624;2023-05-17T03:14:52;14.10;;;5.50;;
63193;SDS011;49289;51.670;5.624;2023-05-17T03:16:39;12.20;;;5.60;;
63193;SDS011;49289;51.670;5.624;2023-05-17T03:18:26;15.00;;;5.70;;
63193;SDS011;49289;51.670;5.624;2023-05-17T03:20:13;14.30;;;5.40;;
63193;SDS011;49289;51.670;5.624;2023-05-17T03:22:01;11.60;;;5.00;;
63193;SDS011;49289;51.670;5.624;2023-05-17T03:23:49;13.60;;;5.30;;
63193;SDS011;49289;51.670;5.624;2023-05-17T03:25:37;13.70;;;6.20;;
63193;SDS011;49289;51.670;5.624;2023-05-17T03:27:25;15.40;;;5.80;;
63193;SDS011;49289;51.670;5.624;2023-05-17T03:29:13;13.90;;;5.90;;
63193;SDS011;49289;51.670;5.624;2023-05-17T03:31:01;16.20;;;5.80;;
63193;SDS011;49289;51.670;5.624;2023-05-17T03:32:49;13.80;;;5.80;;
63193;SDS011;49289;51.670;5.624;2023-05-17T03:34:37;16.00;;;5.50;;
63193;SDS011;49289;51.670;5.624;2023-05-17T03:36:24;15.40;;;6.10;;
63193;SDS011;49289;51.670;5.624;2023-05-17T03:38:12;16.50;;;6.10;;
63193;SDS011;49289;51.670;5.624;2023-05-17T03:40:00;20.00;;;6.10;;
63193;SDS011;49289;51.670;5.624;2023-05-17T03:41:49;13.30;;;5.90;;
63193;SDS011;49289;51.670;5.624;2023-05-17T03:43:37;13.80;;;5.80;;
63193;SDS011;49289;51.670;5.624;2023-05-17T03:45:25;14.80;;;5.80;;
63193;SDS011;49289;51.670;5.624;2023-05-17T03:47:12;16.50;;;6.00;;
63193;SDS011;49289;51.670;5.624;2023-05-17T03:49:00;14.20;;;6.70;;
63193;SDS011;49289;51.670;5.624;2023-05-17T03:50:48;16.20;;;6.00;;
63193;SDS011;49289;51.670;5.624;2023-05-17T03:52:36;14.60;;;5.50;;
63193;SDS011;49289;51.670;5.624;2023-05-17T03:54:23;14.10;;;5.80;;
63193;SDS011;49289;51.670;5.624;2023-05-17T03:56:11;13.20;;;6.10;;
63193;SDS011;49289;51.670;5.624;2023-05-17T03:58:00;16.80;;;6.20;;
63193;SDS011;49289;51.670;5.624;2023-05-17T03:59:47;15.10;;;6.20;;
63193;SDS011;49289;51.670;5.624;2023-05-17T04:01:35;13.00;;;5.80;;
63193;SDS011;49289;51.670;5.624;2023-05-17T04:03:23;16.60;;;6.50;;
63193;SDS011;49289;51.670;5.624;2023-05-17T04:05:12;13.80;;;5.70;;
63193;SDS011;49289;51.670;5.624;2023-05-17T04:07:00;15.20;;;6.00;;
63193;SDS011;49289;51.670;5.624;2023-05-17T04:08:48;14.60;;;6.20;;
63193;SDS011;49289;51.670;5.624;2023-05-17T04:10:36;14.90;;;5.90;;
63193;SDS011;49289;51.670;5.624;2023-05-17T04:12:23;15.20;;;5.80;;
63193;SDS011;49289;51.670;5.624;2023-05-17T04:14:11;15.10;;;5.90;;
63193;SDS011;49289;51.670;5.624;2023-05-17T04:15:59;16.20;;;5.80;;
63193;SDS011;49289;51.670;5.624;2023-05-17T04:17:46;14.10;;;6.10;;
63193;SDS011;49289;51.670;5.624;2023-05-17T04:19:33;15.90;;;6.30;;
63193;SDS011;49289;51.670;5.624;2023-05-17T04:21:20;13.00;;;6.20;;
63193;SDS011;49289;51.670;5.624;2023-05-17T04:23:07;14.50;;;6.20;;
63193;SDS011;49289;51.670;5.624;2023-05-17T04:24:54;17.80;;;6.20;;
63193;SDS011;49289;51.670;5.624;2023-05-17T04:26:41;13.40;;;6.30;;
63193;SDS011;49289;51.670;5.624;2023-05-17T04:28:31;13.60;;;5.80;;
63193;SDS011;49289;51.670;5.624;2023-05-17T04:30:19;14.30;;;6.00;;
63193;SDS011;49289;51.670;5.624;2023-05-17T04:32:06;21.90;;;6.80;;
63193;SDS011;49289;51.670;5.624;2023-05-17T04:33:53;14.30;;;6.40;;
63193;SDS011;49289;51.670;5.624;2023-05-17T04:35:40;13.90;;;7.00;;
63193;SDS011;49289;51.670;5.624;2023-05-17T04:37:27;18.60;;;6.50;;
63193;SDS011;49289;51.670;5.624;2023-05-17T04:39:14;17.30;;;6.80;;
63193;SDS011;49289;51.670;5.624;2023-05-17T04:41:05;14.70;;;6.20;;
63193;SDS011;49289;51.670;5.624;2023-05-17T04:42:52;17.90;;;7.00;;
63193;SDS011;49289;51.670;5.624;2023-05-17T04:44:39;20.90;;;6.80;;
63193;SDS011;49289;51.670;5.624;2023-05-17T04:46:26;20.40;;;6.90;;
63193;SDS011;49289;51.670;5.624;2023-05-17T04:48:13;18.10;;;6.60;;
63193;SDS011;49289;51.670;5.624;2023-05-17T04:50:00;16.00;;;6.40;;
63193;SDS011;49289;51.670;5.624;2023-05-17T04:51:47;13.30;;;6.40;;
63193;SDS011;49289;51.670;5.624;2023-05-17T04:53:34;18.50;;;6.50;;
63193;SDS011;49289;51.670;5.624;2023-05-17T04:55:21;16.10;;;6.40;;
63193;SDS011;49289;51.670;5.624;2023-05-17T04:57:08;13.40;;;5.80;;
63193;SDS011;49289;51.670;5.624;2023-05-17T04:58:55;20.00;;;8.10;;
63193;SDS011;49289;51.670;5.624;2023-05-17T05:00:42;16.00;;;6.50;;
63193;SDS011;49289;51.670;5.624;2023-05-17T05:02:29;18.20;;;6.50;;
63193;SDS011;49289;51.670;5.624;2023-05-17T05:04:16;17.20;;;6.20;;
63193;SDS011;49289;51.670;5.624;2023-05-17T05:06:04;14.50;;;6.00;;
63193;SDS011;49289;51.670;5.624;2023-05-17T05:07:51;14.70;;;6.00;;
63193;SDS011;49289;51.670;5.624;2023-05-17T05:09:38;11.90;;;5.50;;
63193;SDS011;49289;51.670;5.624;2023-05-17T05:11:25;18.10;;;6.00;;
63193;SDS011;49289;51.670;5.624;2023-05-17T05:13:13;19.40;;;5.90;;
63193;SDS011;49289;51.670;5.624;2023-05-17T05:15:01;19.30;;;6.40;;
63193;SDS011;49289;51.670;5.624;2023-05-17T05:16:48;14.10;;;5.90;;
63193;SDS011;49289;51.670;5.624;2023-05-17T05:18:35;17.00;;;6.10;;
63193;SDS011;49289;51.670;5.624;2023-05-17T05:20:22;20.10;;;6.40;;
63193;SDS011;49289;51.670;5.624;2023-05-17T05:22:10;16.90;;;6.10;;
63193;SDS011;49289;51.670;5.624;2023-05-17T05:23:57;15.30;;;5.60;;
63193;SDS011;49289;51.670;5.624;2023-05-17T05:25:45;17.60;;;6.30;;
63193;SDS011;49289;51.670;5.624;2023-05-17T05:27:32;15.20;;;5.60;;
63193;SDS011;49289;51.670;5.624;2023-05-17T05:29:20;15.70;;;5.60;;
63193;SDS011;49289;51.670;5.624;2023-05-17T05:31:08;15.60;;;5.80;;
63193;SDS011;49289;51.670;5.624;2023-05-17T05:32:56;14.20;;;5.80;;
63193;SDS011;49289;51.670;5.624;2023-05-17T05:34:44;14.00;;;6.00;;
63193;SDS011;49289;51.670;5.624;2023-05-17T05:36:32;16.80;;;5.70;;
63193;SDS011;49289;51.670;5.624;2023-05-17T05:38:19;19.30;;;5.70;;
63193;SDS011;49289;51.670;5.624;2023-05-17T05:40:06;17.80;;;5.60;;
63193;SDS011;49289;51.670;5.624;2023-05-17T05:41:54;18.50;;;5.90;;
63193;SDS011;49289;51.670;5.624;2023-05-17T05:44:22;14.60;;;5.80;;
63193;SDS011;49289;51.670;5.624;2023-05-17T05:46:10;16.40;;;6.00;;
63193;SDS011;49289;51.670;5.624;2023-05-17T05:47:57;14.90;;;5.50;;
63193;SDS011;49289;51.670;5.624;2023-05-17T05:49:45;13.20;;;5.40;;
63193;SDS011;49289;51.670;5.624;2023-05-17T05:51:33;12.50;;;5.60;;
63193;SDS011;49289;51.670;5.624;2023-05-17T05:53:21;15.00;;;5.70;;
63193;SDS011;49289;51.670;5.624;2023-05-17T05:55:10;10.90;;;4.80;;
63193;SDS011;49289;51.670;5.624;2023-05-17T05:56:57;15.00;;;5.60;;
63193;SDS011;49289;51.670;5.624;2023-05-17T05:58:44;16.00;;;5.10;;
63193;SDS011;49289;51.670;5.624;2023-05-17T06:00:32;14.90;;;5.10;;
63193;SDS011;49289;51.670;5.624;2023-05-17T06:02:19;15.10;;;4.40;;
63193;SDS011;49289;51.670;5.624;2023-05-17T06:04:06;11.20;;;4.40;;
63193;SDS011;49289;51.670;5.624;2023-05-17T06:05:53;11.20;;;4.40;;
63193;SDS011;49289;51.670;5.624;2023-05-17T06:07:40;13.00;;;3.90;;
63193;SDS011;49289;51.670;5.624;2023-05-17T06:09:28;15.00;;;4.10;;
63193;SDS011;49289;51.670;5.624;2023-05-17T06:11:16;14.90;;;3.70;;
63193;SDS011;49289;51.670;5.624;2023-05-17T06:13:04;16.10;;;3.70;;
63193;SDS011;49289;51.670;5.624;2023-05-17T06:14:52;12.70;;;3.80;;
63193;SDS011;49289;51.670;5.624;2023-05-17T06:16:40;10.30;;;3.30;;
63193;SDS011;49289;51.670;5.624;2023-05-17T06:18:27;11.50;;;2.90;;
63193;SDS011;49289;51.670;5.624;2023-05-17T06:20:16;10.70;;;2.90;;
63193;SDS011;49289;51.670;5.624;2023-05-17T06:22:04;14.40;;;2.70;;
63193;SDS011;49289;51.670;5.624;2023-05-17T06:23:52;12.40;;;2.60;;
63193;SDS011;49289;51.670;5.624;2023-05-17T06:25:40;12.20;;;3.00;;
63193;SDS011;49289;51.670;5.624;2023-05-17T06:27:29;7.60;;;2.70;;
63193;SDS011;49289;51.670;5.624;2023-05-17T06:29:16;16.40;;;2.90;;
63193;SDS011;49289;51.670;5.624;2023-05-17T06:31:03;12.60;;;2.70;;
63193;SDS011;49289;51.670;5.624;2023-05-17T06:32:50;11.60;;;2.70;;
63193;SDS011;49289;51.670;5.624;2023-05-17T06:34:37;12.20;;;2.50;;
63193;SDS011;49289;51.670;5.624;2023-05-17T06:36:24;11.80;;;2.90;;
63193;SDS011;49289;51.670;5.624;2023-05-17T06:38:11;13.30;;;2.80;;
63193;SDS011;49289;51.670;5.624;2023-05-17T06:40:00;12.70;;;2.60;;
63193;SDS011;49289;51.670;5.624;2023-05-17T06:41:48;7.40;;;2.40;;
63193;SDS011;49289;51.670;5.624;2023-05-17T06:43:35;15.10;;;3.10;;
63193;SDS011;49289;51.670;5.624;2023-05-17T06:45:22;11.40;;;2.60;;
63193;SDS011;49289;51.670;5.624;2023-05-17T06:47:10;10.80;;;2.70;;
63193;SDS011;49289;51.670;5.624;2023-05-17T06:48:58;14.40;;;3.30;;
63193;SDS011;49289;51.670;5.624;2023-05-17T06:50:46;10.40;;;2.80;;
63193;SDS011;49289;51.670;5.624;2023-05-17T06:52:33;11.90;;;2.60;;
63193;SDS011;49289;51.670;5.624;2023-05-17T06:54:20;8.90;;;2.80;;
63193;SDS011;49289;51.670;5.624;2023-05-17T06:56:07;13.00;;;3.20;;
63193;SDS011;49289;51.670;5.624;2023-05-17T06:57:54;8.30;;;2.20;;
63193;SDS011;49289;51.670;5.624;2023-05-17T06:59:41;9.30;;;2.40;;
63193;SDS011;49289;51.670;5.624;2023-05-17T07:01:28;10.90;;;2.10;;
63193;SDS011;49289;51.670;5.624;2023-05-17T07:03:16;13.10;;;2.30;;
63193;SDS011;49289;51.670;5.624;2023-05-17T07:05:03;9.20;;;2.00;;
63193;SDS011;49289;51.670;5.624;2023-05-17T07:06:51;9.40;;;2.40;;
63193;SDS011;49289;51.670;5.624;2023-05-17T07:08:38;10.00;;;2.70;;
63193;SDS011;49289;51.670;5.624;2023-05-17T07:10:25;8.10;;;2.20;;
63193;SDS011;49289;51.670;5.624;2023-05-17T07:12:12;8.20;;;2.20;;
63193;SDS011;49289;51.670;5.624;2023-05-17T07:14:00;10.50;;;2.20;;
63193;SDS011;49289;51.670;5.624;2023-05-17T07:15:48;10.40;;;2.50;;
63193;SDS011;49289;51.670;5.624;2023-05-17T07:17:35;10.80;;;2.30;;
63193;SDS011;49289;51.670;5.624;2023-05-17T07:19:22;14.80;;;2.70;;
63193;SDS011;49289;51.670;5.624;2023-05-17T07:21:09;8.80;;;2.00;;
63193;SDS011;49289;51.670;5.624;2023-05-17T07:22:56;10.50;;;2.00;;
63193;SDS011;49289;51.670;5.624;2023-05-17T07:24:43;6.80;;;2.10;;
63193;SDS011;49289;51.670;5.624;2023-05-17T07:26:30;10.90;;;2.00;;
63193;SDS011;49289;51.670;5.624;2023-05-17T07:28:18;9.20;;;2.00;;
63193;SDS011;49289;51.670;5.624;2023-05-17T07:30:06;10.20;;;2.10;;
63193;SDS011;49289;51.670;5.624;2023-05-17T07:31:53;8.60;;;2.30;;
63193;SDS011;49289;51.670;5.624;2023-05-17T07:33:41;8.90;;;2.40;;
63193;SDS011;49289;51.670;5.624;2023-05-17T07:35:29;11.30;;;2.20;;
63193;SDS011;49289;51.670;5.624;2023-05-17T07:37:17;9.30;;;2.50;;
63193;SDS011;49289;51.670;5.624;2023-05-17T07:39:04;7.50;;;2.10;;
63193;SDS011;49289;51.670;5.624;2023-05-17T07:40:52;11.50;;;2.40;;
63193;SDS011;49289;51.670;5.624;2023-05-17T07:42:40;9.70;;;2.40;;
63193;SDS011;49289;51.670;5.624;2023-05-17T07:44:27;7.80;;;2.20;;
63193;SDS011;49289;51.670;5.624;2023-05-17T07:46:14;9.90;;;2.40;;
63193;SDS011;49289;51.670;5.624;2023-05-17T07:48:01;10.90;;;2.50;;
63193;SDS011;49289;51.670;5.624;2023-05-17T07:49:48;9.60;;;2.10;;
63193;SDS011;49289;51.670;5.624;2023-05-17T07:51:35;12.00;;;2.10;;
63193;SDS011;49289;51.670;5.624;2023-05-17T07:53:22;10.40;;;2.40;;
63193;SDS011;49289;51.670;5.624;2023-05-17T07:55:10;8.40;;;1.90;;
63193;SDS011;49289;51.670;5.624;2023-05-17T07:56:58;9.40;;;2.30;;
63193;SDS011;49289;51.670;5.624;2023-05-17T07:58:46;11.80;;;2.30;;
63193;SDS011;49289;51.670;5.624;2023-05-17T08:00:33;10.00;;;2.20;;
63193;SDS011;49289;51.670;5.624;2023-05-17T08:02:21;10.10;;;2.10;;
63193;SDS011;49289;51.670;5.624;2023-05-17T08:04:08;8.30;;;2.00;;
63193;SDS011;49289;51.670;5.624;2023-05-17T08:05:56;7.40;;;2.10;;
63193;SDS011;49289;51.670;5.624;2023-05-17T08:07:45;9.20;;;2.00;;
63193;SDS011;49289;51.670;5.624;2023-05-17T08:09:33;7.30;;;1.90;;
63193;SDS011;49289;51.670;5.624;2023-05-17T08:11:21;10.00;;;1.80;;
63193;SDS011;49289;51.670;5.624;2023-05-17T08:13:09;9.80;;;2.20;;
63193;SDS011;49289;51.670;5.624;2023-05-17T08:14:57;10.10;;;2.70;;
63193;SDS011;49289;51.670;5.624;2023-05-17T08:16:45;10.20;;;2.30;;
63193;SDS011;49289;51.670;5.624;2023-05-17T08:18:32;8.30;;;2.20;;
63193;SDS011;49289;51.670;5.624;2023-05-17T08:20:20;6.60;;;2.10;;
63193;SDS011;49289;51.670;5.624;2023-05-17T08:22:08;6.60;;;1.70;;
63193;SDS011;49289;51.670;5.624;2023-05-17T08:23:55;8.90;;;1.90;;
63193;SDS011;49289;51.670;5.624;2023-05-17T08:25:42;12.40;;;2.40;;
63193;SDS011;49289;51.670;5.624;2023-05-17T08:27:29;10.10;;;2.30;;
63193;SDS011;49289;51.670;5.624;2023-05-17T08:29:17;10.00;;;2.10;;
63193;SDS011;49289;51.670;5.624;2023-05-17T08:31:05;9.50;;;1.70;;
63193;SDS011;49289;51.670;5.624;2023-05-17T08:32:53;12.10;;;2.00;;
63193;SDS011;49289;51.670;5.624;2023-05-17T08:34:41;9.30;;;2.20;;
63193;SDS011;49289;51.670;5.624;2023-05-17T08:36:27;8.60;;;2.20;;
63193;SDS011;49289;51.670;5.624;2023-05-17T08:38:14;8.90;;;2.00;;
63193;SDS011;49289;51.670;5.624;2023-05-17T08:40:02;5.90;;;1.80;;
63193;SDS011;49289;51.670;5.624;2023-05-17T08:41:51;6.30;;;2.00;;
63193;SDS011;49289;51.670;5.624;2023-05-17T08:43:39;10.20;;;1.80;;
63193;SDS011;49289;51.670;5.624;2023-05-17T08:45:26;5.90;;;1.90;;
63193;SDS011;49289;51.670;5.624;2023-05-17T08:47:15;9.30;;;2.20;;
63193;SDS011;49289;51.670;5.624;2023-05-17T08:49:02;5.90;;;2.10;;
63193;SDS011;49289;51.670;5.624;2023-05-17T08:50:50;8.30;;;1.90;;
63193;SDS011;49289;51.670;5.624;2023-05-17T08:52:39;7.40;;;2.00;;
63193;SDS011;49289;51.670;5.624;2023-05-17T08:54:26;7.70;;;1.70;;
63193;SDS011;49289;51.670;5.624;2023-05-17T08:56:15;8.60;;;1.60;;
63193;SDS011;49289;51.670;5.624;2023-05-17T08:58:02;3.60;;;1.40;;
63193;SDS011;49289;51.670;5.624;2023-05-17T08:59:49;4.30;;;1.50;;
63193;SDS011;49289;51.670;5.624;2023-05-17T09:01:37;3.90;;;1.50;;
63193;SDS011;49289;51.670;5.624;2023-05-17T09:03:25;9.50;;;2.30;;
63193;SDS011;49289;51.670;5.624;2023-05-17T09:05:13;8.00;;;1.60;;
63193;SDS011;49289;51.670;5.624;2023-05-17T09:07:01;8.90;;;1.70;;
63193;SDS011;49289;51.670;5.624;2023-05-17T09:08:48;7.10;;;1.50;;
63193;SDS011;49289;51.670;5.624;2023-05-17T09:10:36;3.90;;;1.30;;
63193;SDS011;49289;51.670;5.624;2023-05-17T09:12:24;8.10;;;2.50;;
63193;SDS011;49289;51.670;5.624;2023-05-17T09:14:13;5.70;;;1.40;;
63193;SDS011;49289;51.670;5.624;2023-05-17T09:16:00;9.30;;;2.00;;
63193;SDS011;49289;51.670;5.624;2023-05-17T09:17:49;5.00;;;1.40;;
63193;SDS011;49289;51.670;5.624;2023-05-17T09:19:39;8.00;;;1.40;;
63193;SDS011;49289;51.670;5.624;2023-05-17T09:21:27;7.80;;;1.80;;
63193;SDS011;49289;51.670;5.624;2023-05-17T09:23:14;7.40;;;1.70;;
63193;SDS011;49289;51.670;5.624;2023-05-17T09:25:01;5.30;;;1.50;;
63193;SDS011;49289;51.670;5.624;2023-05-17T09:26:49;7.50;;;1.70;;
63193;SDS011;49289;51.670;5.624;2023-05-17T09:28:41;7.90;;;1.60;;
63193;SDS011;49289;51.670;5.624;2023-05-17T09:30:32;5.00;;;1.50;;
63193;SDS011;49289;51.670;5.624;2023-05-17T09:32:18;5.50;;;1.60;;
63193;SDS011;49289;51.670;5.624;2023-05-17T09:34:05;6.30;;;1.60;;
63193;SDS011;49289;51.670;5.624;2023-05-17T09:35:52;5.60;;;1.40;;
63193;SDS011;49289;51.670;5.624;2023-05-17T09:37:39;6.50;;;1.70;;
63193;SDS011;49289;51.670;5.624;2023-05-17T09:39:27;4.20;;;1.40;;
63193;SDS011;49289;51.670;5.624;2023-05-17T09:41:15;6.50;;;1.60;;
63193;SDS011;49289;51.670;5.624;2023-05-17T09:43:04;6.60;;;1.60;;
63193;SDS011;49289;51.670;5.624;2023-05-17T09:44:53;3.90;;;1.40;;
63193;SDS011;49289;51.670;5.624;2023-05-17T09:46:40;4.20;;;1.60;;
63193;SDS011;49289;51.670;5.624;2023-05-17T09:48:26;7.60;;;1.80;;
63193;SDS011;49289;51.670;5.624;2023-05-17T09:50:16;3.10;;;1.30;;
63193;SDS011;49289;51.670;5.624;2023-05-17T09:52:05;8.90;;;1.20;;
63193;SDS011;49289;51.670;5.624;2023-05-17T09:53:52;3.10;;;1.20;;
63193;SDS011;49289;51.670;5.624;2023-05-17T09:55:39;3.80;;;1.60;;
63193;SDS011;49289;51.670;5.624;2023-05-17T09:57:34;7.00;;;1.70;;
63193;SDS011;49289;51.670;5.624;2023-05-17T09:59:15;4.70;;;1.40;;
63193;SDS011;49289;51.670;5.624;2023-05-17T10:01:04;3.30;;;1.70;;
63193;SDS011;49289;51.670;5.624;2023-05-17T10:02:50;6.70;;;1.50;;
63193;SDS011;49289;51.670;5.624;2023-05-17T10:04:38;6.70;;;1.80;;
63193;SDS011;49289;51.670;5.624;2023-05-17T10:06:24;5.20;;;1.70;;
63193;SDS011;49289;51.670;5.624;2023-05-17T10:08:11;3.50;;;1.50;;
63193;SDS011;49289;51.670;5.624;2023-05-17T10:09:58;4.40;;;1.40;;
63193;SDS011;49289;51.670;5.624;2023-05-17T10:11:45;4.90;;;1.60;;
63193;SDS011;49289;51.670;5.624;2023-05-17T10:13:33;4.80;;;1.50;;
63193;SDS011;49289;51.670;5.624;2023-05-17T10:15:19;3.50;;;1.50;;
63193;SDS011;49289;51.670;5.624;2023-05-17T10:17:06;3.80;;;1.50;;
63193;SDS011;49289;51.670;5.624;2023-05-17T10:18:53;6.10;;;1.40;;
63193;SDS011;49289;51.670;5.624;2023-05-17T10:20:41;5.80;;;1.80;;
63193;SDS011;49289;51.670;5.624;2023-05-17T10:22:28;4.80;;;1.80;;
63193;SDS011;49289;51.670;5.624;2023-05-17T10:24:15;6.40;;;1.50;;
63193;SDS011;49289;51.670;5.624;2023-05-17T10:26:02;4.50;;;1.50;;
63193;SDS011;49289;51.670;5.624;2023-05-17T10:27:49;3.10;;;1.40;;
63193;SDS011;49289;51.670;5.624;2023-05-17T10:29:36;5.60;;;1.50;;
63193;SDS011;49289;51.670;5.624;2023-05-17T10:31:23;5.00;;;1.60;;
63193;SDS011;49289;51.670;5.624;2023-05-17T10:33:10;5.00;;;1.50;;
63193;SDS011;49289;51.670;5.624;2023-05-17T10:34:58;3.40;;;1.40;;
63193;SDS011;49289;51.670;5.624;2023-05-17T10:36:45;7.50;;;2.30;;
63193;SDS011;49289;51.670;5.624;2023-05-17T10:38:34;6.30;;;1.60;;
63193;SDS011;49289;51.670;5.624;2023-05-17T10:40:21;4.70;;;1.60;;
63193;SDS011;49289;51.670;5.624;2023-05-17T10:42:11;4.80;;;1.70;;